sensor_id;sensor_type;location;lat;lon;timestamp;pressure;altitude;pressure_sealevel;temperature;humidity
74915;BME280;63475;45.140;-75.616;2023-05-10T00:00:46;100810.44;;;20.49;
74915;BME280;63475;45.140;-75.616;2023-05-10T00:01:47;100804.69;;;20.41;
74915;BME280;63475;45.140;-75.616;2023-05-10T00:02:48;100809.28;;;20.35;
74915;BME280;63475;45.140;-75.616;2023-05-10T00:03:49;100800.81;;;20.27;
74915;BME280;63475;45.140;-75.616;2023-05-10T00:04:50;100794.69;;;20.12;
74915;BME280;63475;45.140;-75.616;2023-05-10T00:05:51;100806.41;;;20.09;
74915;BME280;63475;45.140;-75.616;2023-05-10T00:06:52;100777.84;;;19.82;
74915;BME280;63475;45.140;-75.616;2023-05-10T00:07:53;100808.25;;;19.88;
74915;BME280;63475;45.140;-75.616;2023-05-10T00:08:54;100802.97;;;19.79;
74915;BME280;63475;45.140;-75.616;2023-05-10T00:09:54;100812.31;;;19.69;
74915;BME280;63475;45.140;-75.616;2023-05-10T00:10:55;100808.22;;;19.59;
74915;BME280;63475;45.140;-75.616;2023-05-10T00:11:56;100807.66;;;19.55;
74915;BME280;63475;45.140;-75.616;2023-05-10T00:12:58;100794.81;;;19.35;
74915;BME280;63475;45.140;-75.616;2023-05-10T00:13:59;100802.97;;;19.26;
74915;BME280;63475;45.140;-75.616;2023-05-10T00:15:00;100810.72;;;19.24;
74915;BME280;63475;45.140;-75.616;2023-05-10T00:16:01;100800.50;;;19.14;
74915;BME280;63475;45.140;-75.616;2023-05-10T00:17:02;100811.88;;;19.09;
74915;BME280;63475;45.140;-75.616;2023-05-10T00:18:03;100811.00;;;19.02;
74915;BME280;63475;45.140;-75.616;2023-05-10T00:19:04;100808.22;;;18.97;
74915;BME280;63475;45.140;-75.616;2023-05-10T00:20:05;100807.78;;;18.89;
74915;BME280;63475;45.140;-75.616;2023-05-10T00:21:07;100791.81;;;18.71;
74915;BME280;63475;45.140;-75.616;2023-05-10T00:22:07;100814.03;;;18.72;
74915;BME280;63475;45.140;-75.616;2023-05-10T00:23:08;100810.81;;;18.59;
74915;BME280;63475;45.140;-75.616;2023-05-10T00:24:09;100816.00;;;18.53;
74915;BME280;63475;45.140;-75.616;2023-05-10T00:25:10;100812.16;;;18.45;
74915;BME280;63475;45.140;-75.616;2023-05-10T00:26:11;100815.03;;;18.32;
74915;BME280;63475;45.140;-75.616;2023-05-10T00:27:12;100809.09;;;18.19;
74915;BME280;63475;45.140;-75.616;2023-05-10T00:28:13;100811.47;;;18.17;
74915;BME280;63475;45.140;-75.616;2023-05-10T00:29:14;100815.66;;;18.09;
74915;BME280;63475;45.140;-75.616;2023-05-10T00:30:15;100809.47;;;17.94;
74915;BME280;63475;45.140;-75.616;2023-05-10T00:31:16;100811.53;;;17.90;
74915;BME280;63475;45.140;-75.616;2023-05-10T00:32:17;100816.75;;;17.84;
74915;BME280;63475;45.140;-75.616;2023-05-10T00:33:18;100816.59;;;17.79;
74915;BME280;63475;45.140;-75.616;2023-05-10T00:34:18;100805.88;;;17.60;
74915;BME280;63475;45.140;-75.616;2023-05-10T00:35:19;100806.75;;;17.48;
74915;BME280;63475;45.140;-75.616;2023-05-10T00:36:21;100818.22;;;17.49;
74915;BME280;63475;45.140;-75.616;2023-05-10T00:37:22;100819.84;;;17.37;
74915;BME280;63475;45.140;-75.616;2023-05-10T00:38:23;100790.75;;;17.17;
74915;BME280;63475;45.140;-75.616;2023-05-10T00:39:24;100816.25;;;17.31;
74915;BME280;63475;45.140;-75.616;2023-05-10T00:40:27;100813.44;;;17.25;
74915;BME280;63475;45.140;-75.616;2023-05-10T00:41:29;100815.59;;;17.18;
74915;BME280;63475;45.140;-75.616;2023-05-10T00:42:33;100797.28;;;16.98;
74915;BME280;63475;45.140;-75.616;2023-05-10T00:43:34;100815.13;;;17.01;
74915;BME280;63475;45.140;-75.616;2023-05-10T00:44:35;100794.38;;;16.74;
74915;BME280;63475;45.140;-75.616;2023-05-10T00:45:36;100818.91;;;16.82;
74915;BME280;63475;45.140;-75.616;2023-05-10T00:46:38;100820.38;;;16.74;
74915;BME280;63475;45.140;-75.616;2023-05-10T00:47:39;100822.28;;;16.64;
74915;BME280;63475;45.140;-75.616;2023-05-10T00:48:40;100807.44;;;16.41;
74915;BME280;63475;45.140;-75.616;2023-05-10T00:49:41;100805.44;;;16.33;
74915;BME280;63475;45.140;-75.616;2023-05-10T00:50:42;100826.72;;;16.36;
74915;BME280;63475;45.140;-75.616;2023-05-10T00:51:43;100827.72;;;16.30;
74915;BME280;63475;45.140;-75.616;2023-05-10T00:52:45;100826.34;;;16.25;
74915;BME280;63475;45.140;-75.616;2023-05-10T00:53:46;100823.91;;;16.18;
74915;BME280;63475;45.140;-75.616;2023-05-10T00:54:47;100813.50;;;15.98;
74915;BME280;63475;45.140;-75.616;2023-05-10T00:55:48;100827.94;;;16.01;
74915;BME280;63475;45.140;-75.616;2023-05-10T00:56:49;100827.00;;;15.95;
74915;BME280;63475;45.140;-75.616;2023-05-10T00:57:50;100825.31;;;15.88;
74915;BME280;63475;45.140;-75.616;2023-05-10T00:58:51;100833.88;;;15.83;
74915;BME280;63475;45.140;-75.616;2023-05-10T00:59:52;100799.66;;;15.56;
74915;BME280;63475;45.140;-75.616;2023-05-10T01:00:54;100830.81;;;15.72;
74915;BME280;63475;45.140;-75.616;2023-05-10T01:01:55;100828.78;;;15.64;
74915;BME280;63475;45.140;-75.616;2023-05-10T01:02:56;100835.44;;;15.59;
74915;BME280;63475;45.140;-75.616;2023-05-10T01:03:58;100818.78;;;15.42;
74915;BME280;63475;45.140;-75.616;2023-05-10T01:04:59;100812.59;;;15.33;
74915;BME280;63475;45.140;-75.616;2023-05-10T01:06:00;100827.78;;;15.36;
74915;BME280;63475;45.140;-75.616;2023-05-10T01:07:01;100830.56;;;15.32;
74915;BME280;63475;45.140;-75.616;2023-05-10T01:08:02;100831.53;;;15.26;
74915;BME280;63475;45.140;-75.616;2023-05-10T01:09:03;100811.75;;;15.10;
74915;BME280;63475;45.140;-75.616;2023-05-10T01:10:06;100796.81;;;14.88;
74915;BME280;63475;45.140;-75.616;2023-05-10T01:11:07;100820.22;;;14.96;
74915;BME280;63475;45.140;-75.616;2023-05-10T01:12:08;100834.94;;;15.01;
74915;BME280;63475;45.140;-75.616;2023-05-10T01:13:09;100846.03;;;14.99;
74915;BME280;63475;45.140;-75.616;2023-05-10T01:14:11;100842.72;;;14.95;
74915;BME280;63475;45.140;-75.616;2023-05-10T01:15:12;100842.16;;;14.88;
74915;BME280;63475;45.140;-75.616;2023-05-10T01:16:14;100849.13;;;14.85;
74915;BME280;63475;45.140;-75.616;2023-05-10T01:17:15;100843.56;;;14.80;
74915;BME280;63475;45.140;-75.616;2023-05-10T01:18:20;100835.91;;;14.65;
74915;BME280;63475;45.140;-75.616;2023-05-10T01:19:26;100847.78;;;14.64;
74915;BME280;63475;45.140;-75.616;2023-05-10T01:20:34;100842.31;;;14.55;
74915;BME280;63475;45.140;-75.616;2023-05-10T01:26:50;100847.97;;;14.28;
74915;BME280;63475;45.140;-75.616;2023-05-10T01:27:53;100846.22;;;14.22;
74915;BME280;63475;45.140;-75.616;2023-05-10T01:31:03;100839.75;;;14.07;
74915;BME280;63475;45.140;-75.616;2023-05-10T01:32:15;100837.34;;;13.96;
74915;BME280;63475;45.140;-75.616;2023-05-10T01:33:24;100846.19;;;13.93;
74915;BME280;63475;45.140;-75.616;2023-05-10T01:34:35;100841.03;;;13.86;
74915;BME280;63475;45.140;-75.616;2023-05-10T01:37:46;100838.63;;;13.59;
74915;BME280;63475;45.140;-75.616;2023-05-10T01:38:51;100853.84;;;13.58;
74915;BME280;63475;45.140;-75.616;2023-05-10T01:40:03;100846.38;;;13.53;
74915;BME280;63475;45.140;-75.616;2023-05-10T01:41:32;100838.19;;;13.44;
74915;BME280;63475;45.140;-75.616;2023-05-10T01:42:49;100845.78;;;13.46;
74915;BME280;63475;45.140;-75.616;2023-05-10T01:45:50;100835.59;;;13.25;
74915;BME280;63475;45.140;-75.616;2023-05-10T01:47:28;100855.47;;;13.36;
74915;BME280;63475;45.140;-75.616;2023-05-10T01:48:32;100858.69;;;13.28;
74915;BME280;63475;45.140;-75.616;2023-05-10T01:49:45;100862.44;;;13.30;
74915;BME280;63475;45.140;-75.616;2023-05-10T01:50:49;100856.78;;;13.28;
74915;BME280;63475;45.140;-75.616;2023-05-10T01:51:53;100839.97;;;13.15;
74915;BME280;63475;45.140;-75.616;2023-05-10T01:52:59;100861.84;;;13.23;
74915;BME280;63475;45.140;-75.616;2023-05-10T01:54:02;100862.88;;;13.09;
74915;BME280;63475;45.140;-75.616;2023-05-10T01:55:14;100857.56;;;13.09;
74915;BME280;63475;45.140;-75.616;2023-05-10T01:56:16;100855.75;;;13.06;
74915;BME280;63475;45.140;-75.616;2023-05-10T01:57:19;100851.97;;;13.03;
74915;BME280;63475;45.140;-75.616;2023-05-10T01:58:28;100858.88;;;13.01;
74915;BME280;63475;45.140;-75.616;2023-05-10T01:59:34;100847.69;;;12.90;
74915;BME280;63475;45.140;-75.616;2023-05-10T02:00:43;100847.13;;;12.78;
74915;BME280;63475;45.140;-75.616;2023-05-10T02:01:46;100859.63;;;12.82;
74915;BME280;63475;45.140;-75.616;2023-05-10T02:02:49;100854.44;;;12.74;
74915;BME280;63475;45.140;-75.616;2023-05-10T02:03:51;100797.09;;;12.34;
74915;BME280;63475;45.140;-75.616;2023-05-10T02:04:53;100857.97;;;12.68;
74915;BME280;63475;45.140;-75.616;2023-05-10T02:05:56;100850.19;;;12.57;
74915;BME280;63475;45.140;-75.616;2023-05-10T02:06:58;100840.53;;;12.47;
74915;BME280;63475;45.140;-75.616;2023-05-10T02:08:00;100861.97;;;12.56;
74915;BME280;63475;45.140;-75.616;2023-05-10T02:09:03;100845.25;;;12.36;
74915;BME280;63475;45.140;-75.616;2023-05-10T02:10:06;100867.09;;;12.47;
74915;BME280;63475;45.140;-75.616;2023-05-10T02:11:10;100850.94;;;12.38;
74915;BME280;63475;45.140;-75.616;2023-05-10T02:12:14;100860.81;;;12.37;
74915;BME280;63475;45.140;-75.616;2023-05-10T02:13:17;100861.56;;;12.38;
74915;BME280;63475;45.140;-75.616;2023-05-10T02:14:18;100817.84;;;11.96;
74915;BME280;63475;45.140;-75.616;2023-05-10T02:15:22;100861.72;;;12.27;
74915;BME280;63475;45.140;-75.616;2023-05-10T02:16:26;100863.66;;;12.23;
74915;BME280;63475;45.140;-75.616;2023-05-10T02:17:28;100859.97;;;12.17;
74915;BME280;63475;45.140;-75.616;2023-05-10T02:18:31;100847.69;;;12.04;
74915;BME280;63475;45.140;-75.616;2023-05-10T02:19:34;100865.00;;;12.12;
74915;BME280;63475;45.140;-75.616;2023-05-10T02:20:37;100835.72;;;11.92;
74915;BME280;63475;45.140;-75.616;2023-05-10T02:21:39;100862.81;;;12.07;
74915;BME280;63475;45.140;-75.616;2023-05-10T02:22:41;100869.34;;;12.02;
74915;BME280;63475;45.140;-75.616;2023-05-10T02:23:45;100866.78;;;11.95;
74915;BME280;63475;45.140;-75.616;2023-05-10T02:24:47;100868.72;;;11.91;
74915;BME280;63475;45.140;-75.616;2023-05-10T02:25:49;100869.53;;;11.88;
74915;BME280;63475;45.140;-75.616;2023-05-10T02:26:54;100868.50;;;11.82;
74915;BME280;63475;45.140;-75.616;2023-05-10T02:27:56;100862.47;;;11.78;
74915;BME280;63475;45.140;-75.616;2023-05-10T02:28:58;100862.53;;;11.74;
74915;BME280;63475;45.140;-75.616;2023-05-10T02:30:00;100859.91;;;11.74;
74915;BME280;63475;45.140;-75.616;2023-05-10T02:31:02;100854.22;;;11.72;
74915;BME280;63475;45.140;-75.616;2023-05-10T02:32:03;100840.44;;;11.54;
74915;BME280;63475;45.140;-75.616;2023-05-10T02:33:05;100866.09;;;11.64;
74915;BME280;63475;45.140;-75.616;2023-05-10T02:34:07;100863.44;;;11.64;
74915;BME280;63475;45.140;-75.616;2023-05-10T02:35:09;100867.56;;;11.65;
74915;BME280;63475;45.140;-75.616;2023-05-10T02:36:12;100860.44;;;11.62;
74915;BME280;63475;45.140;-75.616;2023-05-10T02:37:15;100838.34;;;11.42;
74915;BME280;63475;45.140;-75.616;2023-05-10T02:38:19;100863.56;;;11.53;
74915;BME280;63475;45.140;-75.616;2023-05-10T02:39:21;100867.47;;;11.45;
74915;BME280;63475;45.140;-75.616;2023-05-10T02:40:23;100860.72;;;11.41;
74915;BME280;63475;45.140;-75.616;2023-05-10T02:41:27;100860.03;;;11.37;
74915;BME280;63475;45.140;-75.616;2023-05-10T02:42:29;100855.19;;;11.28;
74915;BME280;63475;45.140;-75.616;2023-05-10T02:43:33;100853.28;;;11.29;
74915;BME280;63475;45.140;-75.616;2023-05-10T02:44:36;100854.81;;;11.26;
74915;BME280;63475;45.140;-75.616;2023-05-10T02:45:37;100868.78;;;11.34;
74915;BME280;63475;45.140;-75.616;2023-05-10T02:46:39;100870.69;;;11.30;
74915;BME280;63475;45.140;-75.616;2023-05-10T02:47:40;100871.47;;;11.27;
74915;BME280;63475;45.140;-75.616;2023-05-10T02:48:41;100880.19;;;11.27;
74915;BME280;63475;45.140;-75.616;2023-05-10T02:49:42;100875.69;;;11.24;
74915;BME280;63475;45.140;-75.616;2023-05-10T02:50:53;100879.09;;;11.24;
74915;BME280;63475;45.140;-75.616;2023-05-10T02:52:00;100878.03;;;11.18;
74915;BME280;63475;45.140;-75.616;2023-05-10T02:53:09;100878.06;;;11.15;
74915;BME280;63475;45.140;-75.616;2023-05-10T02:54:13;100877.31;;;11.14;
74915;BME280;63475;45.140;-75.616;2023-05-10T02:55:19;100877.72;;;11.13;
74915;BME280;63475;45.140;-75.616;2023-05-10T02:56:28;100877.00;;;11.09;
74915;BME280;63475;45.140;-75.616;2023-05-10T02:57:33;100880.84;;;11.04;
74915;BME280;63475;45.140;-75.616;2023-05-10T02:58:34;100877.03;;;11.05;
74915;BME280;63475;45.140;-75.616;2023-05-10T02:59:35;100850.03;;;10.80;
74915;BME280;63475;45.140;-75.616;2023-05-10T03:00:37;100877.97;;;10.88;
74915;BME280;63475;45.140;-75.616;2023-05-10T03:01:38;100876.09;;;10.89;
74915;BME280;63475;45.140;-75.616;2023-05-10T03:02:39;100878.75;;;10.85;
74915;BME280;63475;45.140;-75.616;2023-05-10T03:03:40;100881.34;;;10.92;
74915;BME280;63475;45.140;-75.616;2023-05-10T03:04:42;100885.94;;;10.88;
74915;BME280;63475;45.140;-75.616;2023-05-10T03:05:43;100881.84;;;10.80;
74915;BME280;63475;45.140;-75.616;2023-05-10T03:06:44;100867.91;;;10.72;
74915;BME280;63475;45.140;-75.616;2023-05-10T03:07:45;100882.25;;;10.78;
74915;BME280;63475;45.140;-75.616;2023-05-10T03:08:47;100882.63;;;10.77;
74915;BME280;63475;45.140;-75.616;2023-05-10T03:09:48;100886.06;;;10.74;
74915;BME280;63475;45.140;-75.616;2023-05-10T03:11:19;100892.16;;;10.71;
74915;BME280;63475;45.140;-75.616;2023-05-10T03:12:33;100890.31;;;10.68;
74915;BME280;63475;45.140;-75.616;2023-05-10T03:18:01;100893.44;;;10.52;
74915;BME280;63475;45.140;-75.616;2023-05-10T03:20:47;100893.88;;;10.47;
74915;BME280;63475;45.140;-75.616;2023-05-10T03:21:51;100901.47;;;10.41;
74915;BME280;63475;45.140;-75.616;2023-05-10T03:24:26;100904.56;;;10.36;
74915;BME280;63475;45.140;-75.616;2023-05-10T03:25:29;100903.03;;;10.35;
74915;BME280;63475;45.140;-75.616;2023-05-10T03:26:30;100900.78;;;10.34;
74915;BME280;63475;45.140;-75.616;2023-05-10T03:27:32;100903.47;;;10.30;
74915;BME280;63475;45.140;-75.616;2023-05-10T03:28:34;100907.66;;;10.24;
74915;BME280;63475;45.140;-75.616;2023-05-10T03:29:36;100879.44;;;10.03;
74915;BME280;63475;45.140;-75.616;2023-05-10T03:30:38;100906.94;;;10.17;
74915;BME280;63475;45.140;-75.616;2023-05-10T03:31:41;100895.28;;;10.07;
74915;BME280;63475;45.140;-75.616;2023-05-10T03:32:42;100889.69;;;9.91;
74915;BME280;63475;45.140;-75.616;2023-05-10T03:33:50;100916.78;;;10.13;
74915;BME280;63475;45.140;-75.616;2023-05-10T03:34:51;100919.88;;;10.07;
74915;BME280;63475;45.140;-75.616;2023-05-10T03:35:52;100893.50;;;9.86;
74915;BME280;63475;45.140;-75.616;2023-05-10T03:36:55;100885.94;;;9.88;
74915;BME280;63475;45.140;-75.616;2023-05-10T03:37:56;100904.41;;;9.99;
74915;BME280;63475;45.140;-75.616;2023-05-10T03:38:56;100911.97;;;9.97;
74915;BME280;63475;45.140;-75.616;2023-05-10T03:39:57;100921.03;;;10.03;
74915;BME280;63475;45.140;-75.616;2023-05-10T03:40:58;100915.00;;;10.02;
74915;BME280;63475;45.140;-75.616;2023-05-10T03:41:59;100915.38;;;9.97;
74915;BME280;63475;45.140;-75.616;2023-05-10T03:43:00;100916.50;;;10.00;
74915;BME280;63475;45.140;-75.616;2023-05-10T03:44:01;100918.44;;;9.96;
74915;BME280;63475;45.140;-75.616;2023-05-10T03:45:02;100919.56;;;9.95;
74915;BME280;63475;45.140;-75.616;2023-05-10T03:46:04;100923.34;;;9.90;
74915;BME280;63475;45.140;-75.616;2023-05-10T03:47:05;100915.78;;;9.89;
74915;BME280;63475;45.140;-75.616;2023-05-10T03:48:07;100915.03;;;9.92;
74915;BME280;63475;45.140;-75.616;2023-05-10T03:49:07;100917.31;;;9.93;
74915;BME280;63475;45.140;-75.616;2023-05-10T03:50:08;100903.00;;;9.80;
74915;BME280;63475;45.140;-75.616;2023-05-10T03:51:10;100912.78;;;9.87;
74915;BME280;63475;45.140;-75.616;2023-05-10T03:52:11;100924.13;;;9.84;
74915;BME280;63475;45.140;-75.616;2023-05-10T03:53:12;100930.56;;;9.86;
74915;BME280;63475;45.140;-75.616;2023-05-10T03:54:13;100915.88;;;9.74;
74915;BME280;63475;45.140;-75.616;2023-05-10T03:55:14;100924.19;;;9.77;
74915;BME280;63475;45.140;-75.616;2023-05-10T03:56:15;100926.47;;;9.67;
74915;BME280;63475;45.140;-75.616;2023-05-10T03:57:16;100897.06;;;9.51;
74915;BME280;63475;45.140;-75.616;2023-05-10T03:58:16;100921.22;;;9.64;
74915;BME280;63475;45.140;-75.616;2023-05-10T03:59:18;100917.81;;;9.60;
74915;BME280;63475;45.140;-75.616;2023-05-10T04:00:19;100942.38;;;9.64;
74915;BME280;63475;45.140;-75.616;2023-05-10T04:01:20;100934.44;;;9.60;
74915;BME280;63475;45.140;-75.616;2023-05-10T04:02:21;100928.03;;;9.58;
74915;BME280;63475;45.140;-75.616;2023-05-10T04:03:22;100929.53;;;9.59;
74915;BME280;63475;45.140;-75.616;2023-05-10T04:04:23;100929.53;;;9.55;
74915;BME280;63475;45.140;-75.616;2023-05-10T04:05:24;100932.56;;;9.50;
74915;BME280;63475;45.140;-75.616;2023-05-10T04:06:25;100937.09;;;9.53;
74915;BME280;63475;45.140;-75.616;2023-05-10T04:07:26;100940.50;;;9.57;
74915;BME280;63475;45.140;-75.616;2023-05-10T04:08:27;100942.00;;;9.55;
74915;BME280;63475;45.140;-75.616;2023-05-10T04:09:28;100939.03;;;9.49;
74915;BME280;63475;45.140;-75.616;2023-05-10T04:10:29;100937.50;;;9.45;
74915;BME280;63475;45.140;-75.616;2023-05-10T04:11:30;100940.53;;;9.47;
74915;BME280;63475;45.140;-75.616;2023-05-10T04:12:31;100930.34;;;9.45;
74915;BME280;63475;45.140;-75.616;2023-05-10T04:13:32;100940.56;;;9.36;
74915;BME280;63475;45.140;-75.616;2023-05-10T04:14:33;100941.69;;;9.39;
74915;BME280;63475;45.140;-75.616;2023-05-10T04:15:34;100939.81;;;9.39;
74915;BME280;63475;45.140;-75.616;2023-05-10T04:16:35;100923.56;;;9.37;
74915;BME280;63475;45.140;-75.616;2023-05-10T04:17:36;100924.34;;;9.23;
74915;BME280;63475;45.140;-75.616;2023-05-10T04:18:38;100940.19;;;9.27;
74915;BME280;63475;45.140;-75.616;2023-05-10T04:19:40;100943.22;;;9.29;
74915;BME280;63475;45.140;-75.616;2023-05-10T04:20:40;100930.03;;;9.18;
74915;BME280;63475;45.140;-75.616;2023-05-10T04:21:41;100922.84;;;9.12;
74915;BME280;63475;45.140;-75.616;2023-05-10T04:22:42;100916.44;;;9.13;
74915;BME280;63475;45.140;-75.616;2023-05-10T04:23:43;100937.94;;;9.22;
74915;BME280;63475;45.140;-75.616;2023-05-10T04:24:44;100921.34;;;9.07;
74915;BME280;63475;45.140;-75.616;2023-05-10T04:25:45;100900.59;;;8.95;
74915;BME280;63475;45.140;-75.616;2023-05-10T04:26:46;100934.16;;;9.12;
74915;BME280;63475;45.140;-75.616;2023-05-10T04:27:47;100937.56;;;9.13;
74915;BME280;63475;45.140;-75.616;2023-05-10T04:28:48;100904.75;;;8.85;
74915;BME280;63475;45.140;-75.616;2023-05-10T04:29:49;100901.75;;;8.80;
74915;BME280;63475;45.140;-75.616;2023-05-10T04:30:50;100940.22;;;9.02;
74915;BME280;63475;45.140;-75.616;2023-05-10T04:31:51;100938.34;;;9.03;
74915;BME280;63475;45.140;-75.616;2023-05-10T04:32:52;100936.09;;;8.94;
74915;BME280;63475;45.140;-75.616;2023-05-10T04:33:53;100941.00;;;8.95;
74915;BME280;63475;45.140;-75.616;2023-05-10T04:34:54;100934.97;;;8.91;
74915;BME280;63475;45.140;-75.616;2023-05-10T04:35:55;100929.66;;;8.81;
74915;BME280;63475;45.140;-75.616;2023-05-10T04:36:56;100923.25;;;8.78;
74915;BME280;63475;45.140;-75.616;2023-05-10T04:37:57;100907.41;;;8.64;
74915;BME280;63475;45.140;-75.616;2023-05-10T04:38:58;100931.94;;;8.79;
74915;BME280;63475;45.140;-75.616;2023-05-10T04:39:59;100936.84;;;8.84;
74915;BME280;63475;45.140;-75.616;2023-05-10T04:41:07;100906.31;;;8.58;
74915;BME280;63475;45.140;-75.616;2023-05-10T04:42:09;100935.34;;;8.72;
74915;BME280;63475;45.140;-75.616;2023-05-10T04:43:10;100941.00;;;8.74;
74915;BME280;63475;45.140;-75.616;2023-05-10T04:44:10;100905.88;;;8.52;
74915;BME280;63475;45.140;-75.616;2023-05-10T04:45:12;100945.50;;;8.70;
74915;BME280;63475;45.140;-75.616;2023-05-10T04:46:13;100940.25;;;8.67;
74915;BME280;63475;45.140;-75.616;2023-05-10T04:47:13;100879.84;;;8.22;
74915;BME280;63475;45.140;-75.616;2023-05-10T04:48:14;100925.13;;;8.46;
74915;BME280;63475;45.140;-75.616;2023-05-10T04:49:15;100944.03;;;8.58;
74915;BME280;63475;45.140;-75.616;2023-05-10T04:50:17;100903.59;;;8.44;
74915;BME280;63475;45.140;-75.616;2023-05-10T04:51:18;100933.06;;;8.56;
74915;BME280;63475;45.140;-75.616;2023-05-10T04:52:19;100921.34;;;8.47;
74915;BME280;63475;45.140;-75.616;2023-05-10T04:53:20;100933.44;;;8.55;
74915;BME280;63475;45.140;-75.616;2023-05-10T04:54:21;100934.56;;;8.50;
74915;BME280;63475;45.140;-75.616;2023-05-10T04:55:22;100925.84;;;8.43;
74915;BME280;63475;45.140;-75.616;2023-05-10T04:56:23;100929.66;;;8.42;
74915;BME280;63475;45.140;-75.616;2023-05-10T04:57:24;100918.31;;;8.31;
74915;BME280;63475;45.140;-75.616;2023-05-10T04:58:25;100937.19;;;8.40;
74915;BME280;63475;45.140;-75.616;2023-05-10T04:59:26;100929.63;;;8.35;
74915;BME280;63475;45.140;-75.616;2023-05-10T05:00:27;100932.25;;;8.35;
74915;BME280;63475;45.140;-75.616;2023-05-10T05:01:28;100928.88;;;8.38;
74915;BME280;63475;45.140;-75.616;2023-05-10T05:02:29;100867.72;;;7.93;
74915;BME280;63475;45.140;-75.616;2023-05-10T05:03:31;100927.00;;;8.31;
74915;BME280;63475;45.140;-75.616;2023-05-10T05:04:33;100908.84;;;8.19;
74915;BME280;63475;45.140;-75.616;2023-05-10T05:05:33;100921.72;;;8.24;
74915;BME280;63475;45.140;-75.616;2023-05-10T05:06:35;100930.38;;;8.28;
74915;BME280;63475;45.140;-75.616;2023-05-10T05:07:36;100905.81;;;8.06;
74915;BME280;63475;45.140;-75.616;2023-05-10T05:08:37;100927.34;;;8.22;
74915;BME280;63475;45.140;-75.616;2023-05-10T05:09:38;100923.22;;;8.21;
74915;BME280;63475;45.140;-75.616;2023-05-10T05:10:39;100924.34;;;8.20;
74915;BME280;63475;45.140;-75.616;2023-05-10T05:11:40;100920.53;;;8.18;
74915;BME280;63475;45.140;-75.616;2023-05-10T05:12:41;100918.25;;;8.13;
74915;BME280;63475;45.140;-75.616;2023-05-10T05:13:42;100916.75;;;8.12;
74915;BME280;63475;45.140;-75.616;2023-05-10T05:14:43;100921.25;;;8.04;
74915;BME280;63475;45.140;-75.616;2023-05-10T05:15:44;100914.84;;;7.98;
74915;BME280;63475;45.140;-75.616;2023-05-10T05:16:46;100917.09;;;8.00;
74915;BME280;63475;45.140;-75.616;2023-05-10T05:17:47;100923.50;;;8.02;
74915;BME280;63475;45.140;-75.616;2023-05-10T05:18:48;100913.34;;;7.97;
74915;BME280;63475;45.140;-75.616;2023-05-10T05:19:49;100904.63;;;7.89;
74915;BME280;63475;45.140;-75.616;2023-05-10T05:20:50;100906.53;;;7.89;
74915;BME280;63475;45.140;-75.616;2023-05-10T05:21:51;100915.22;;;8.00;
74915;BME280;63475;45.140;-75.616;2023-05-10T05:22:52;100924.25;;;7.99;
74915;BME280;63475;45.140;-75.616;2023-05-10T05:23:53;100923.50;;;7.99;
74915;BME280;63475;45.140;-75.616;2023-05-10T05:24:54;100928.75;;;7.99;
74915;BME280;63475;45.140;-75.616;2023-05-10T05:25:55;100925.75;;;7.97;
74915;BME280;63475;45.140;-75.616;2023-05-10T05:26:56;100921.97;;;7.90;
74915;BME280;63475;45.140;-75.616;2023-05-10T05:27:57;100921.97;;;7.94;
74915;BME280;63475;45.140;-75.616;2023-05-10T05:28:58;100929.50;;;7.92;
74915;BME280;63475;45.140;-75.616;2023-05-10T05:29:59;100920.03;;;7.84;
74915;BME280;63475;45.140;-75.616;2023-05-10T05:31:00;100928.75;;;7.92;
74915;BME280;63475;45.140;-75.616;2023-05-10T05:32:01;100925.00;;;7.93;
74915;BME280;63475;45.140;-75.616;2023-05-10T05:33:02;100913.63;;;7.85;
74915;BME280;63475;45.140;-75.616;2023-05-10T05:34:03;100925.00;;;7.93;
74915;BME280;63475;45.140;-75.616;2023-05-10T05:35:04;100928.38;;;7.93;
74915;BME280;63475;45.140;-75.616;2023-05-10T05:36:05;100929.50;;;7.92;
74915;BME280;63475;45.140;-75.616;2023-05-10T05:37:06;100928.75;;;7.88;
74915;BME280;63475;45.140;-75.616;2023-05-10T05:38:07;100926.50;;;7.86;
74915;BME280;63475;45.140;-75.616;2023-05-10T05:39:08;100928.38;;;7.86;
74915;BME280;63475;45.140;-75.616;2023-05-10T05:40:12;100924.19;;;7.85;
74915;BME280;63475;45.140;-75.616;2023-05-10T05:41:14;100926.44;;;7.83;
74915;BME280;63475;45.140;-75.616;2023-05-10T05:42:15;100917.75;;;7.75;
74915;BME280;63475;45.140;-75.616;2023-05-10T05:43:18;100923.41;;;7.77;
74915;BME280;63475;45.140;-75.616;2023-05-10T05:44:18;100927.19;;;7.80;
74915;BME280;63475;45.140;-75.616;2023-05-10T05:45:19;100913.97;;;7.73;
74915;BME280;63475;45.140;-75.616;2023-05-10T05:46:21;100924.16;;;7.78;
74915;BME280;63475;45.140;-75.616;2023-05-10T05:47:22;100930.56;;;7.80;
74915;BME280;63475;45.140;-75.616;2023-05-10T05:48:23;100928.69;;;7.81;
74915;BME280;63475;45.140;-75.616;2023-05-10T05:49:24;100917.72;;;7.72;
74915;BME280;63475;45.140;-75.616;2023-05-10T05:50:25;100893.97;;;7.58;
74915;BME280;63475;45.140;-75.616;2023-05-10T05:51:26;100932.09;;;7.78;
74915;BME280;63475;45.140;-75.616;2023-05-10T05:52:27;100936.56;;;7.74;
74915;BME280;63475;45.140;-75.616;2023-05-10T05:53:28;100924.53;;;7.69;
74915;BME280;63475;45.140;-75.616;2023-05-10T05:54:30;100937.31;;;7.67;
74915;BME280;63475;45.140;-75.616;2023-05-10T05:55:31;100910.84;;;7.49;
74915;BME280;63475;45.140;-75.616;2023-05-10T05:56:32;100933.91;;;7.67;
74915;BME280;63475;45.140;-75.616;2023-05-10T05:57:33;100927.50;;;7.61;
74915;BME280;63475;45.140;-75.616;2023-05-10T05:58:34;100938.47;;;7.70;
74915;BME280;63475;45.140;-75.616;2023-05-10T05:59:35;100935.06;;;7.69;
74915;BME280;63475;45.140;-75.616;2023-05-10T06:00:36;100933.94;;;7.70;